Latest Weather Observations for Flinders Island Airport

IDT60801

Issued at 11:35 pm EST Tuesday 30 September 2014 (issued every 30 minutes, with the page automatically refreshed every 10 minutes)

About weather observations | Map of weather stations | Latest weather observations for TAS | Other Formats
Station Details ID: 099005 Name: FLINDERS ISLAND AIRPORT Lat: -40.09 Lon: 148.00 Height: 9.0 m
Data from the previous 72 hours. | See also: Recent months at Flinders Island Airport
Date/Time
EST
Temp
°C
App
Temp
°C
Dew
Point
Rel
Hum
%
Delta-T
°C
Wind Press
QNH
hPa
Press
MSL
hPa
Rain
since 9 am
mm
Dir
 
Spd
km/h
Gust
km/h
Spd
kts
Gust
kts
30/11:31pm 10.6 0.3 4.5 66 2.7 WSW 48 70 26 38 1006.8 1006.8 5.8
30/11:30pm 10.6 0.2 4.3 65 2.8 WSW 48 59 26 32 1006.7 1006.7 5.8
30/11:00pm 10.7 0.3 4.0 63 3.0 WSW 48 57 26 31 1006.4 1006.4 5.8
30/10:30pm 10.5 -0.1 4.9 68 2.5 W 50 63 27 34 1005.9 1005.9 5.8
30/10:03pm 10.4 -0.5 5.4 71 2.3 WSW 52 70 28 38 1005.4 1005.4 5.8
30/10:00pm 10.4 -0.9 5.2 70 2.4 W 54 70 29 38 1005.3 1005.3 5.8
30/09:30pm 10.5 -1.9 4.6 67 2.6 WSW 59 72 32 39 1004.9 1004.9 5.8
30/09:04pm 10.6 -2.0 5.4 70 2.4 WSW 61 80 33 43 1004.6 1004.6 5.8
30/09:00pm 10.5 -2.5 5.5 71 2.3 W 63 80 34 43 1004.5 1004.5 5.8
30/08:38pm 10.7 -1.9 5.5 70 2.4 W 61 80 33 43 1004.1 1004.1 5.8
30/08:30pm 10.9 -0.9 5.9 71 2.3 W 57 72 31 39 1003.7 1003.7 5.8
30/08:06pm 10.7 -0.9 6.5 75 2.0 W 57 76 31 41 1003.7 1003.7 5.8
30/08:00pm 10.5 -2.7 6.3 75 2.0 W 65 80 35 43 1003.3 1003.3 5.8
30/07:52pm 10.9 -1.0 7.0 77 1.9 W 59 80 32 43 1003.3 1003.3 5.8
30/07:30pm 10.1 0.0 7.5 84 1.2 W 50 61 27 33 1003.5 1003.5 5.8
30/07:14pm 11.2 0.7 7.5 78 1.8 W 52 74 28 40 1003.1 1003.1 5.4
30/07:00pm 11.0 0.6 7.9 81 1.5 W 52 61 28 33 1002.5 1002.5 5.4
30/06:34pm 10.6 1.1 8.2 85 1.2 W 48 59 26 32 1002.6 1002.6 5.4
30/06:30pm 10.9 1.1 8.7 86 1.1 W 50 61 27 33 1002.3 1002.3 5.4
30/06:25pm 10.9 -0.2 8.7 86 1.1 W 57 76 31 41 1002.5 1002.5 5.4
30/06:09pm 11.1 -1.5 9.0 87 1.0 W 65 78 35 42 1001.4 1001.4 4.6
30/06:05pm 10.9 -1.3 9.0 88 0.9 W 63 78 34 42 1001.4 1001.4 4.6
30/06:00pm 11.0 -1.1 9.3 89 0.9 W 63 85 34 46 1001.3 1001.3 4.4
30/05:55pm 11.4 -0.6 9.8 90 0.8 W 63 85 34 46 1001.1 1001.1 4.4
30/05:52pm 11.4 -0.6 9.8 90 0.8 W 63 76 34 41 1000.9 1000.9 4.4
30/05:51pm 11.7 -0.6 10.1 90 0.8 W 65 76 35 41 1000.9 1000.9 4.4
30/05:34pm 11.9 3.7 10.5 91 0.7 W 44 63 24 34 1000.6 1000.6 4.2
30/05:32pm 11.9 3.9 10.5 91 0.7 WNW 43 59 23 32 1000.4 1000.4 4.0
30/05:30pm 11.8 4.5 10.2 90 0.8 WNW 39 57 21 31 1000.3 1000.3 4.0
30/05:28pm 11.8 4.9 10.2 90 0.8 WNW 37 56 20 30 1000.3 1000.3 3.8
30/05:23pm 11.7 5.5 10.1 90 0.8 WNW 33 46 18 25 1000.3 1000.3 3.6
30/05:04pm 11.7 5.5 10.1 90 0.8 W 33 43 18 23 1000.7 1000.7 2.8
30/05:00pm 11.7 5.5 9.9 89 0.9 W 33 50 18 27 1000.7 1000.7 2.6
30/04:52pm 11.7 3.9 9.9 89 0.9 W 41 52 22 28 1000.6 1000.6 2.4
30/04:30pm 11.9 2.8 10.0 88 1.0 W 48 59 26 32 1000.4 1000.4 1.6
30/04:02pm 13.4 3.1 9.6 78 1.9 W 54 76 29 41 999.5 999.5 0.2
30/04:00pm 13.4 2.5 9.5 77 2.0 W 57 91 31 49 999.4 999.4 0.0
30/03:53pm 15.4 2.6 9.7 69 3.0 W 67 91 36 49 999.1 999.1 0.0
30/03:51pm 17.9 11.1 9.3 57 4.5 NW 35 80 19 43 998.6 998.6 0.0
30/03:30pm 18.6 11.3 8.6 52 5.2 NNW 37 52 20 28 998.3 998.3 0.0
30/03:20pm 18.7 12.4 8.9 53 5.1 NNW 32 50 17 27 998.6 998.6 0.0
30/03:00pm 19.5 13.5 8.5 49 5.8 NNW 30 43 16 23 998.6 998.6 0.0
30/02:30pm 18.9 13.0 9.1 53 5.1 NNW 30 39 16 21 999.0 999.0 0.0
30/02:00pm 18.6 12.8 9.4 55 4.9 NW 30 48 16 26 1000.1 1000.1 0.0
30/01:30pm 19.0 12.3 9.8 55 4.9 NW 35 46 19 25 1000.9 1000.9 0.0
30/01:02pm 18.6 12.2 9.4 55 4.8 NNW 33 56 18 30 1001.3 1001.3 0.0
30/01:00pm 18.7 12.0 9.5 55 4.9 NNW 35 50 19 27 1001.3 1001.3 0.0
30/12:47pm 18.4 11.7 9.5 56 4.7 NNW 35 54 19 29 1001.5 1001.5 0.0
30/12:30pm 18.5 11.8 9.8 57 4.6 NW 35 52 19 28 1001.8 1001.8 0.0
30/12:08pm 18.4 10.5 9.5 56 4.7 NW 41 61 22 33 1002.2 1002.2 0.0
30/12:00pm 18.5 11.0 9.3 55 4.9 NW 39 54 21 29 1002.4 1002.4 0.0
30/11:37am 17.0 10.0 9.9 63 3.7 NW 37 56 20 30 1003.1 1003.1 0.0
30/11:30am 16.4 8.1 9.3 63 3.7 NW 43 54 23 29 1003.3 1003.3 0.0
30/11:00am 17.4 9.4 10.3 63 3.8 WNW 43 57 23 31 1004.0 1004.0 0.0
30/10:55am 17.0 8.9 9.9 63 3.7 WNW 43 61 23 33 1004.2 1004.2 0.0
30/10:30am 17.2 8.9 9.9 62 3.8 NW 44 59 24 32 1004.5 1004.5 0.0
30/10:03am 16.9 9.4 9.6 62 3.8 NW 39 57 21 31 1004.7 1004.7 0.0
30/10:00am 16.9 8.7 9.6 62 3.8 NW 43 57 23 31 1004.8 1004.8 0.0
30/09:48am 17.0 9.6 9.9 63 3.7 NW 39 57 21 31 1004.9 1004.9 0.0
30/09:30am 16.5 9.1 9.7 64 3.6 NW 39 54 21 29 1005.1 1005.1 0.0
30/09:00am 16.2 9.7 10.3 68 3.1 NW 35 46 19 25 1005.5 1005.5 0.0
30/08:30am 15.7 9.9 10.9 73 2.6 NW 32 39 17 21 1006.1 1006.1 0.0
30/08:00am 14.9 10.4 11.5 80 1.8 NW 26 35 14 19 1006.4 1006.4 0.0
30/07:30am 14.7 11.4 11.5 81 1.7 NW 20 28 11 15 1006.5 1006.5 0.0
30/07:00am 14.0 11.4 10.8 81 1.7 WNW 15 19 8 10 1006.5 1006.5 0.0
30/06:30am 13.5 11.4 11.0 85 1.3 NNW 13 19 7 10 1006.6 1006.6 0.0
30/06:00am 12.9 10.8 11.0 88 1.0 N 13 26 7 14 1006.1 1006.1 0.0
30/05:30am 12.8 12.4 11.0 89 0.9 NW 4 9 2 5 1006.2 1006.2 0.0
30/05:00am 12.6 11.2 10.8 89 0.9 NW 9 11 5 6 1006.9 1006.9 0.0
30/04:30am 12.2 9.9 10.3 88 1.0 NNW 13 20 7 11 1007.5 1007.5 0.0
30/04:22am 12.6 9.6 10.7 88 1.0 NNW 17 26 9 14 1007.6 1007.6 0.0
30/04:00am 12.6 10.0 10.7 88 1.0 NNW 15 22 8 12 1008.0 1008.0 0.0
30/03:55am 12.8 9.9 10.9 88 1.0 NNW 17 22 9 12 1008.2 1008.2 0.0
30/03:30am 12.5 10.2 10.6 88 1.0 NNW 13 17 7 9 1008.3 1008.3 0.0
30/03:00am 12.3 10.7 10.2 87 1.1 N 9 13 5 7 1008.7 1008.7 0.0
30/02:30am 9.7 7.7 7.3 85 1.1 N 7 11 4 6 1009.3 1009.3 0.0
30/02:00am 10.9 9.2 8.3 84 1.3 NNW 7 9 4 5 1009.7 1009.7 0.0
30/01:30am 11.5 9.5 8.7 83 1.4 NW 9 11 5 6 1010.3 1010.3 0.0
30/01:00am 12.0 9.8 9.2 83 1.4 NNW 11 15 6 8 1010.8 1010.8 0.0
30/12:30am 12.1 8.9 8.6 79 1.7 NNW 15 22 8 12 1010.9 1010.9 0.0
30/12:00am 11.9 9.5 8.6 80 1.6 N 11 17 6 9 1011.0 1011.0 0.0
 
Date/Time
EST
Temp
°C
App
Temp
°C
Dew
Point
Rel
Hum
%
Delta-T
°C
Wind Press
QNH
hPa
Press
MSL
hPa
Rain
since 9 am
mm
Dir
 
Spd
km/h
Gust
km/h
Spd
kts
Gust
kts
29/11:30pm 12.2 9.1 8.9 80 1.6 N 15 20 8 11 1011.2 1011.2 0.0
29/11:00pm 12.3 8.9 9.0 80 1.7 N 17 26 9 14 1011.3 1011.3 0.0
29/10:30pm 11.6 8.8 8.6 82 1.5 N 13 17 7 9 1011.4 1011.4 0.0
29/10:00pm 11.6 8.4 8.6 82 1.5 N 15 20 8 11 1011.4 1011.4 0.0
29/09:30pm 10.9 8.8 8.3 84 1.3 NNW 9 9 5 5 1011.1 1011.1 0.0
29/09:00pm 11.2 9.1 8.4 83 1.4 N 9 11 5 6 1011.1 1011.1 0.0
29/08:30pm 11.8 8.6 8.6 81 1.6 WNW 15 17 8 9 1011.3 1011.3 0.0
29/08:00pm 12.4 9.4 9.2 81 1.6 WNW 15 20 8 11 1011.2 1011.2 0.0
29/07:30pm 12.6 9.2 9.2 80 1.7 WNW 17 26 9 14 1011.1 1011.1 0.0
29/07:00pm 12.9 9.1 9.2 78 1.9 W 19 24 10 13 1010.7 1010.7 0.0
29/06:30pm 13.2 8.8 9.1 76 2.1 W 22 30 12 16 1010.4 1010.4 0.0
29/06:00pm 13.6 8.5 9.3 75 2.2 W 26 33 14 18 1010.2 1010.2 0.0
29/05:30pm 14.1 8.3 9.5 74 2.4 W 30 35 16 19 1010.2 1010.2 0.0
29/05:00pm 14.5 8.1 9.5 72 2.6 WNW 33 41 18 22 1010.2 1010.2 0.0
29/04:30pm 14.9 7.7 9.1 68 3.0 W 37 50 20 27 1010.0 1010.0 0.0
29/04:00pm 15.4 7.9 9.3 67 3.1 W 39 48 21 26 1009.9 1009.9 0.0
29/03:30pm 15.7 7.7 9.1 65 3.4 W 41 52 22 28 1010.1 1010.1 0.0
29/03:00pm 15.9 8.8 9.6 66 3.3 W 37 46 20 25 1010.2 1010.2 0.0
29/02:54pm 15.8 9.2 9.9 68 3.1 W 35 46 19 25 1010.3 1010.3 0.0
29/02:41pm 15.9 9.4 10.4 70 2.9 W 35 48 19 26 1010.1 1010.1 0.0
29/02:30pm 15.7 8.9 10.5 71 2.7 W 37 48 20 26 1010.0 1010.0 0.0
29/02:00pm 16.3 8.9 9.7 65 3.4 W 39 50 21 27 1010.0 1010.0 0.0
29/01:30pm 15.8 8.3 9.5 66 3.3 W 39 50 21 27 1010.4 1010.4 0.0
29/01:00pm 16.1 9.0 9.5 65 3.4 W 37 50 20 27 1010.3 1010.3 0.0
29/12:30pm 16.1 8.3 9.8 66 3.3 W 41 52 22 28 1010.1 1010.1 0.0
29/12:00pm 15.7 6.9 9.4 66 3.3 W 46 59 25 32 1009.8 1009.8 0.0
29/11:30am 15.6 7.1 9.3 66 3.2 W 44 61 24 33 1010.0 1010.0 0.0
29/11:00am 15.8 7.4 9.7 67 3.2 W 44 56 24 30 1010.1 1010.1 0.0
29/10:30am 15.7 8.3 9.8 68 3.1 WNW 39 50 21 27 1010.2 1010.2 0.0
29/10:00am 15.8 8.1 10.3 70 2.9 W 41 54 22 29 1010.1 1010.1 0.0
29/09:30am 15.6 7.6 10.4 71 2.7 W 43 52 23 28 1010.1 1010.1 0.0
29/09:00am 14.7 8.8 10.3 75 2.3 W 32 41 17 22 1010.2 1010.2 0.4
29/08:30am 14.1 6.7 9.7 75 2.3 W 39 48 21 26 1009.8 1009.8 0.4
29/08:15am 14.6 8.5 10.6 77 2.1 W 33 44 18 24 1009.5 1009.5 0.4
29/08:00am 14.1 8.2 10.3 78 2.0 W 32 39 17 21 1009.3 1009.3 0.4
29/07:30am 14.0 8.1 10.6 80 1.8 W 32 39 17 21 1009.1 1009.1 0.4
29/07:28am 14.1 8.3 10.7 80 1.8 W 32 39 17 21 1009.0 1009.0 0.4
29/07:00am 13.8 7.7 10.6 81 1.7 W 33 44 18 24 1008.5 1008.5 0.4
29/06:30am 13.4 7.3 10.6 83 1.5 W 33 44 18 24 1008.1 1008.1 0.4
29/06:00am 13.2 4.5 10.0 81 1.7 W 46 61 25 33 1007.4 1007.4 0.4
29/05:37am 14.0 7.9 10.4 79 1.9 WNW 33 54 18 29 1006.8 1006.8 0.4
29/05:30am 14.0 7.9 10.4 79 1.9 WNW 33 48 18 26 1006.7 1006.7 0.4
29/05:00am 13.6 6.7 10.2 80 1.8 WNW 37 52 20 28 1006.4 1006.4 0.4
29/04:53am 13.7 7.6 10.3 80 1.8 WNW 33 52 18 28 1006.3 1006.3 0.4
29/04:30am 13.7 7.2 10.3 80 1.8 WNW 35 46 19 25 1005.7 1005.7 0.4
29/04:00am 13.5 7.6 10.3 81 1.7 WNW 32 41 17 22 1005.5 1005.5 0.4
29/03:30am 13.4 7.3 10.6 83 1.5 W 33 46 18 25 1005.2 1005.2 0.4
29/03:00am 13.4 7.5 10.6 83 1.5 WNW 32 41 17 22 1005.3 1005.3 0.4
29/02:30am 13.7 9.1 11.0 84 1.4 WNW 26 32 14 17 1005.1 1005.1 0.4
29/02:00am 14.7 9.7 11.1 79 1.9 WNW 28 35 15 19 1005.3 1005.3 0.0
29/01:30am 15.8 11.5 10.8 72 2.7 WNW 24 30 13 16 1004.4 1004.4 0.0
29/01:00am 16.7 13.0 10.3 66 3.4 WNW 20 30 11 16 1004.2 1004.2 0.0
29/12:30am 17.0 14.0 10.6 66 3.4 WNW 17 20 9 11 1004.3 1004.3 0.0
29/12:00am 17.6 14.9 10.2 62 3.9 WNW 15 20 8 11 1003.8 1003.8 0.0
 
Date/Time
EST
Temp
°C
App
Temp
°C
Dew
Point
Rel
Hum
%
Delta-T
°C
Wind Press
QNH
hPa
Press
MSL
hPa
Rain
since 9 am
mm
Dir
 
Spd
km/h
Gust
km/h
Spd
kts
Gust
kts
28/11:30pm 18.2 15.4 10.1 59 4.3 NNW 15 22 8 12 1003.1 1003.1 0.0
28/11:00pm 18.6 14.9 10.2 58 4.5 NNW 20 30 11 16 1003.7 1003.7 0.0
28/10:30pm 19.5 14.6 10.0 54 5.1 NNW 26 37 14 20 1004.3 1004.3 0.0
28/10:00pm 21.2 14.7 9.1 46 6.5 N 33 56 18 30 1003.1 1003.1 0.0
28/09:49pm 19.4 13.3 10.4 56 4.8 N 33 52 18 28 1003.1 1003.1 0.0
28/09:30pm 19.1 12.8 10.9 59 4.5 NNE 35 52 19 28 1003.0 1003.0 0.0
28/09:10pm 19.3 12.3 11.1 59 4.5 NNE 39 57 21 31 1003.2 1003.2 0.0
28/09:00pm 19.3 11.5 11.1 59 4.5 NNE 43 54 23 29 1003.1 1003.1 0.0
28/08:30pm 19.7 12.3 11.2 58 4.7 NNE 41 52 22 28 1003.6 1003.6 0.0
28/08:19pm 19.6 11.8 11.1 58 4.6 NNE 43 61 23 33 1003.6 1003.6 0.0
28/08:00pm 19.5 12.1 11.3 59 4.5 NNE 41 54 22 29 1003.9 1003.9 0.0
28/07:37pm 19.6 12.3 11.4 59 4.5 NNE 41 59 22 32 1004.0 1004.0 0.0
28/07:30pm 19.5 12.6 11.5 60 4.4 NNE 39 56 21 30 1004.0 1004.0 0.0
28/07:20pm 19.4 12.1 11.7 61 4.2 NNE 41 59 22 32 1004.0 1004.0 0.0
28/07:00pm 19.4 12.5 11.7 61 4.3 NNE 39 52 21 28 1004.0 1004.0 0.0
28/06:30pm 18.7 12.3 12.0 65 3.7 NNE 37 48 20 26 1003.6 1003.6 0.0
28/06:00pm 18.9 12.4 11.7 63 4.0 NNE 37 48 20 26 1004.0 1004.0 0.0
28/05:30pm 19.6 13.4 11.4 59 4.5 NNE 35 48 19 26 1004.3 1004.3 0.0
28/05:00pm 19.0 13.5 11.8 63 4.0 NNE 32 43 17 23 1004.5 1004.5 0.0
28/04:30pm 20.6 14.9 11.0 54 5.3 NNE 32 41 17 22 1004.7 1004.7 0.0
28/04:00pm 21.8 17.5 10.6 49 6.2 N 24 35 13 19 1005.0 1005.0 0.0
28/03:30pm 22.2 17.9 10.7 48 6.3 N 24 35 13 19 1005.3 1005.3 0.0
28/03:00pm 22.8 16.9 10.3 45 6.9 N 32 50 17 27 1005.7 1005.7 0.0
28/02:34pm 24.2 18.4 9.4 39 8.0 N 30 48 16 26 1006.0 1006.0 0.0
28/02:30pm 24.2 18.1 9.8 40 7.9 N 32 48 17 26 1006.1 1006.1 0.0
28/02:00pm 24.5 18.4 9.6 39 8.2 NNW 32 50 17 27 1006.7 1006.7 0.0
28/01:30pm 25.1 18.1 9.8 38 8.4 NNW 37 56 20 30 1006.7 1006.7 0.0
28/01:00pm 24.8 19.6 10.3 40 8.0 N 28 48 15 26 1006.9 1006.9 0.0
28/12:30pm 24.1 17.2 10.4 42 7.6 N 37 61 20 33 1006.8 1006.8 0.0
28/12:00pm 23.3 17.7 11.4 47 6.7 N 32 50 17 27 1007.3 1007.3 0.0
28/11:30am 23.2 17.5 11.3 47 6.7 N 32 50 17 27 1008.0 1008.0 0.0
28/11:00am 22.6 16.6 10.7 47 6.6 N 33 44 18 24 1008.6 1008.6 0.0
28/10:30am 22.1 16.4 11.2 50 6.0 N 32 46 17 25 1009.2 1009.2 0.0
28/10:21am 21.6 15.9 11.0 51 5.8 N 32 50 17 27 1009.3 1009.3 0.0
28/10:00am 21.0 15.5 11.9 56 5.1 N 32 48 17 26 1009.8 1009.8 0.0
28/09:55am 20.8 15.7 12.0 57 4.9 N 30 48 16 26 1009.9 1009.9 0.0
28/09:30am 20.6 14.0 11.2 55 5.2 N 37 54 20 29 1010.0 1010.0 0.0
28/09:00am 19.7 13.5 11.5 59 4.5 N 35 54 19 29 1010.4 1010.4 0.0
28/08:30am 18.3 12.1 11.4 64 3.8 N 35 48 19 26 1010.8 1010.8 0.0
28/08:00am 17.9 12.5 11.0 64 3.7 NNE 30 43 16 23 1011.1 1011.1 0.0
28/07:30am 16.5 10.8 11.0 70 2.9 NNE 32 46 17 25 1011.4 1011.4 0.0
28/07:00am 16.1 10.4 11.1 72 2.7 NNE 32 46 17 25 1011.7 1011.7 0.0
28/06:30am 15.4 9.4 10.8 74 2.4 NNE 33 44 18 24 1011.9 1011.9 0.0
28/06:00am 15.1 9.1 10.9 76 2.2 NNE 33 48 18 26 1012.1 1012.1 0.0
28/05:30am 15.1 9.3 10.9 76 2.2 NNE 32 43 17 23 1012.2 1012.2 0.0
28/05:00am 14.9 9.0 11.1 78 2.0 NNE 33 39 18 21 1012.4 1012.4 0.0
28/04:30am 14.7 8.0 10.9 78 2.0 NNE 37 50 20 27 1012.5 1012.5 0.0
28/04:00am 14.9 8.4 10.5 75 2.3 NNE 35 44 19 24 1012.8 1012.8 0.0
28/03:30am 14.8 7.1 10.0 73 2.5 NNE 41 52 22 28 1013.1 1013.1 0.0
28/03:00am 14.7 7.7 9.9 73 2.5 NNE 37 54 20 29 1013.5 1013.6 0.0
28/02:30am 14.5 7.9 9.9 74 2.4 NNE 35 50 19 27 1013.8 1013.9 0.0
28/02:15am 14.4 7.5 10.2 76 2.2 NNE 37 56 20 30 1014.0 1014.1 0.0
28/02:00am 14.2 7.8 10.6 79 1.9 NNE 35 48 19 26 1014.2 1014.3 0.0
28/01:30am 14.2 7.3 10.4 78 2.0 NNE 37 50 20 27 1014.7 1014.8 0.0
28/01:00am 14.1 8.0 10.3 78 2.0 NNE 33 50 18 27 1015.0 1015.1 0.0
28/12:30am 13.9 7.4 10.5 80 1.8 NNE 35 46 19 25 1015.2 1015.3 0.0
28/12:00am 14.0 7.1 10.2 78 2.0 NNE 37 52 20 28 1015.4 1015.5 0.0

Other Formats:

Comma delimited format used in spreadsheet applications
http://www.bom.gov.au/fwo/IDT60801/IDT60801.94980.axf

JavaScript Object Notation format (JSON) in row-major order
http://www.bom.gov.au/fwo/IDT60801/IDT60801.94980.json